createdAt,value
2018-12-22T00:01:52.581Z,99928.22
2018-12-22T00:04:20.914Z,99927.84
2018-12-22T00:06:49.415Z,99917.60
2018-12-22T00:09:18.012Z,99898.41
2018-12-22T00:11:46.266Z,99945.55
2018-12-22T00:14:14.618Z,99956.24
2018-12-22T00:16:43.571Z,99956.67
2018-12-22T00:19:12.016Z,99967.36
2018-12-22T00:21:40.925Z,99968.05
2018-12-22T00:24:10.783Z,99973.52
2018-12-22T00:26:39.147Z,99977.33
2018-12-22T00:29:07.492Z,99979.56
2018-12-22T00:31:35.760Z,99996.28
2018-12-22T00:34:04.144Z,99997.22
2018-12-22T00:36:33.953Z,99996.12
2018-12-22T00:39:02.361Z,100005.84
2018-12-22T00:41:30.855Z,99997.05
2018-12-22T00:43:59.296Z,100006.52
2018-12-22T00:46:27.500Z,100017.66
2018-12-22T00:48:57.808Z,100018.92
2018-12-22T00:51:26.162Z,100019.66
2018-12-22T00:53:55.359Z,100029.86
2018-12-22T00:56:23.615Z,100034.20
2018-12-22T00:58:51.801Z,100056.20
2018-12-22T01:01:20.134Z,100065.77
2018-12-22T01:03:48.354Z,100082.20
2018-12-22T01:06:16.591Z,100065.99
2018-12-22T01:08:44.823Z,100086.24
2018-12-22T01:11:13.070Z,100092.44
2018-12-22T01:13:41.689Z,100087.86
2018-12-22T01:16:11.942Z,100101.91
2018-12-22T01:18:43.753Z,100107.10
2018-12-22T01:21:13.366Z,100117.61
2018-12-22T01:23:46.282Z,100117.05
2018-12-22T01:26:14.753Z,100117.78
2018-12-22T01:28:43.030Z,100118.36
2018-12-22T01:31:11.436Z,100117.41
2018-12-22T01:33:41.340Z,100126.14
2018-12-22T01:36:09.628Z,100130.75
2018-12-22T01:38:37.818Z,100133.39
2018-12-22T01:41:06.060Z,100139.18
2018-12-22T01:43:39.816Z,100140.70
2018-12-22T01:46:08.201Z,100145.21
2018-12-22T01:48:36.628Z,100143.70
2018-12-22T01:51:05.017Z,100158.15
2018-12-22T01:53:33.242Z,100159.46
2018-12-22T01:56:01.385Z,100164.08
2018-12-22T01:58:29.594Z,100172.13
2018-12-22T02:00:57.822Z,100170.55
2018-12-22T02:03:25.983Z,100179.55
2018-12-22T02:05:54.290Z,100177.02
2018-12-22T02:08:22.493Z,100180.20
2018-12-22T02:10:50.754Z,100179.37
2018-12-22T02:13:18.956Z,100178.06
2018-12-22T02:15:47.133Z,100185.20
2018-12-22T02:18:19.211Z,100188.56
2018-12-22T02:20:47.466Z,100194.19
2018-12-22T02:23:15.793Z,100195.88
2018-12-22T02:25:44.088Z,100205.75
2018-12-22T02:28:12.275Z,100208.08
2018-12-22T02:30:40.541Z,100204.23
2018-12-22T02:33:08.756Z,100203.20
2018-12-22T02:35:36.896Z,100206.74
2018-12-22T02:38:05.026Z,100209.58
2018-12-22T02:40:33.276Z,100209.95
2018-12-22T02:43:01.534Z,100212.78
2018-12-22T02:45:29.708Z,100225.08
2018-12-22T02:47:57.965Z,100226.45
2018-12-22T02:50:26.198Z,100230.94
2018-12-22T02:52:54.342Z,100230.00
2018-12-22T02:55:22.677Z,100232.47
2018-12-22T02:57:50.820Z,100235.34
2018-12-22T03:00:18.980Z,100231.02
2018-12-22T03:02:47.409Z,100236.19
2018-12-22T03:05:32.004Z,100233.69
2018-12-22T03:08:00.176Z,100239.20
2018-12-22T03:10:28.336Z,100241.83
2018-12-22T03:12:56.486Z,100247.02
2018-12-22T03:15:25.720Z,100245.95
2018-12-22T03:17:53.941Z,100246.35
2018-12-22T03:20:22.465Z,100250.30
2018-12-22T03:22:59.005Z,100250.66
2018-12-22T03:25:27.321Z,100258.36
2018-12-22T03:27:55.538Z,100263.80
2018-12-22T03:30:54.427Z,100256.86
2018-12-22T03:33:23.226Z,100252.55
2018-12-22T03:35:51.432Z,100256.66
2018-12-22T03:38:19.619Z,100266.38
2018-12-22T03:43:40.395Z,100258.91
2018-12-22T03:46:08.722Z,100272.04
2018-12-22T03:48:37.193Z,100272.79
2018-12-22T03:51:05.431Z,100265.19
2018-12-22T03:53:33.644Z,100275.60
2018-12-22T03:56:01.849Z,100277.13
2018-12-22T03:58:30.107Z,100282.92
2018-12-22T04:00:58.293Z,100283.30
2018-12-22T04:03:26.477Z,100278.17
2018-12-22T04:05:54.694Z,100287.14
2018-12-22T04:08:22.869Z,100286.39
2018-12-22T04:10:51.113Z,100293.03
2018-12-22T04:13:20.312Z,100288.92
2018-12-22T04:15:48.473Z,100293.71
2018-12-22T04:18:16.738Z,100295.69
2018-12-22T04:20:44.905Z,100298.09
2018-12-22T04:23:13.138Z,100305.03
2018-12-22T04:25:41.282Z,100300.16
2018-12-22T04:28:09.473Z,100306.95
2018-12-22T04:30:37.591Z,100306.73
2018-12-22T04:33:05.728Z,100310.13
2018-12-22T04:35:33.875Z,100310.20
2018-12-22T04:38:02.077Z,100317.17
2018-12-22T04:40:30.279Z,100326.23
2018-12-22T04:42:58.515Z,100331.53
2018-12-22T04:45:26.668Z,100327.27
2018-12-22T04:47:54.978Z,100334.96
2018-12-22T04:50:23.242Z,100331.12
2018-12-22T04:52:51.417Z,100341.63
2018-12-22T04:55:19.650Z,100340.41
2018-12-22T04:57:47.777Z,100342.94
2018-12-22T05:00:16.159Z,100335.43
2018-12-22T05:02:44.601Z,100340.41
2018-12-22T05:05:12.825Z,100335.99
2018-12-22T05:07:40.977Z,100336.52
2018-12-22T05:10:09.283Z,100341.92
2018-12-22T05:12:37.435Z,100351.34
2018-12-22T05:15:06.720Z,100356.41
2018-12-22T05:17:34.966Z,100355.13
2018-12-22T05:20:03.315Z,100347.41
2018-12-22T05:22:31.690Z,100352.84
2018-12-22T05:25:00.011Z,100348.91
2018-12-22T05:27:28.265Z,100353.73
2018-12-22T05:30:02.470Z,100354.25
2018-12-22T05:32:30.765Z,100360.30
2018-12-22T05:34:58.989Z,100361.06
2018-12-22T05:37:27.208Z,100365.83
2018-12-22T05:39:55.479Z,100369.88
2018-12-22T05:42:23.746Z,100378.91
2018-12-22T05:44:59.748Z,100382.45
2018-12-22T05:47:27.900Z,100388.81
2018-12-22T05:49:56.052Z,100391.48
2018-12-22T05:52:24.227Z,100386.89
2018-12-22T05:54:52.476Z,100395.94
2018-12-22T05:57:20.928Z,100396.89
2018-12-22T05:59:49.084Z,100399.09
2018-12-22T06:02:17.296Z,100402.65
2018-12-22T06:04:45.642Z,100398.24
2018-12-22T06:07:20.344Z,100393.83
2018-12-22T06:09:48.523Z,100401.14
2018-12-22T06:12:16.869Z,100402.50
2018-12-22T06:14:45.042Z,100409.59
2018-12-22T06:17:13.210Z,100415.11
2018-12-22T06:19:42.619Z,100413.71
2018-12-22T06:22:11.144Z,100418.26
2018-12-22T06:24:39.340Z,100419.58
2018-12-22T06:27:07.530Z,100427.60
2018-12-22T06:29:35.667Z,100421.83
2018-12-22T06:32:04.110Z,100431.57
2018-12-22T06:34:32.334Z,100427.81
2018-12-22T06:37:00.665Z,100421.21
2018-12-22T06:39:28.872Z,100431.16
2018-12-22T06:41:57.168Z,100440.67
2018-12-22T06:44:25.462Z,100439.77
2018-12-22T06:46:53.614Z,100445.02
2018-12-22T06:49:21.846Z,100445.02
2018-12-22T06:51:50.036Z,100450.66
2018-12-22T06:54:18.402Z,100449.11
2018-12-22T06:56:46.585Z,100445.25
2018-12-22T06:59:14.791Z,100446.80
2018-12-22T07:01:42.976Z,100450.53
2018-12-22T07:04:11.199Z,100453.80
2018-12-22T07:09:31.895Z,100467.53
2018-12-22T07:12:00.106Z,100478.48
2018-12-22T07:14:28.349Z,100477.33
2018-12-22T07:16:56.639Z,100476.23
2018-12-22T07:19:24.859Z,100472.78
2018-12-22T07:22:11.142Z,100486.56
2018-12-22T07:24:39.490Z,100492.30
2018-12-22T07:27:07.779Z,100500.17
2018-12-22T07:29:35.945Z,100506.44
2018-12-22T07:32:04.308Z,100509.52
2018-12-22T07:34:32.624Z,100522.25
2018-12-22T07:37:00.878Z,100522.35
2018-12-22T07:39:29.199Z,100519.63
2018-12-22T07:41:57.329Z,100518.80
2018-12-22T07:44:25.506Z,100522.58
2018-12-22T07:46:53.725Z,100533.62
2018-12-22T07:49:22.052Z,100532.29
2018-12-22T07:51:51.713Z,100532.20
2018-12-22T07:54:20.253Z,100538.55
2018-12-22T07:56:48.420Z,100540.34
2018-12-22T07:59:16.715Z,100548.50
2018-12-22T08:01:44.941Z,100553.47
2018-12-22T08:04:13.338Z,100554.68
2018-12-22T08:06:41.484Z,100563.42
2018-12-22T08:09:09.801Z,100574.31
2018-12-22T08:11:38.110Z,100578.41
2018-12-22T08:14:06.382Z,100581.16
2018-12-22T08:19:34.893Z,100590.52
2018-12-22T08:22:03.631Z,100589.89
2018-12-22T08:24:31.845Z,100593.69
2018-12-22T08:27:00.124Z,100602.63
2018-12-22T08:29:28.367Z,100600.09
2018-12-22T08:31:56.624Z,100610.37
2018-12-22T08:34:24.932Z,100617.41
2018-12-22T08:36:54.466Z,100624.90
2018-12-22T08:39:22.847Z,100629.59
2018-12-22T08:41:50.998Z,100632.91
2018-12-22T08:44:19.165Z,100636.30
2018-12-22T08:46:47.348Z,100639.17
2018-12-22T08:49:15.557Z,100653.53
2018-12-22T08:52:06.831Z,100659.42
2018-12-22T08:54:35.032Z,100657.86
2018-12-22T08:57:03.260Z,100664.80
2018-12-22T08:59:31.448Z,100670.30
2018-12-22T09:01:59.717Z,100677.63
2018-12-22T09:04:27.944Z,100677.55
2018-12-22T09:06:56.115Z,100688.22
2018-12-22T09:09:24.503Z,100689.23
2018-12-22T09:11:52.681Z,100691.61
2018-12-22T09:14:20.948Z,100702.59
2018-12-22T09:16:53.601Z,100701.11
2018-12-22T09:19:22.791Z,100708.55
2018-12-22T09:21:52.547Z,100714.19
2018-12-22T09:24:20.812Z,100721.22
2018-12-22T09:26:49.095Z,100721.44
2018-12-22T09:29:17.235Z,100740.08
2018-12-22T09:31:45.409Z,100735.12
2018-12-22T09:34:19.048Z,100734.41
2018-12-22T09:36:59.925Z,100743.68
2018-12-22T09:39:28.222Z,100745.55
2018-12-22T09:42:00.317Z,100755.88
2018-12-22T09:44:28.603Z,100756.60
2018-12-22T09:46:57.125Z,100752.41
2018-12-22T09:49:25.296Z,100761.22
2018-12-22T09:51:53.603Z,100766.27
2018-12-22T09:54:21.940Z,100766.39
2018-12-22T09:56:50.165Z,100768.80
2018-12-22T09:59:18.320Z,100769.58
2018-12-22T10:01:46.648Z,100776.98
2018-12-22T10:04:14.802Z,100784.27
2018-12-22T10:06:43.011Z,100779.70
2018-12-22T10:09:11.169Z,100786.16
2018-12-22T10:11:39.436Z,100787.39
2018-12-22T10:14:07.688Z,100790.95
2018-12-22T10:16:36.001Z,100796.30
2018-12-22T10:19:04.303Z,100803.80
2018-12-22T10:21:32.624Z,100792.99
2018-12-22T10:24:00.792Z,100803.59
2018-12-22T10:26:28.940Z,100804.44
2018-12-22T10:28:57.130Z,100805.12
2018-12-22T10:31:25.336Z,100806.52
2018-12-22T10:33:53.604Z,100806.58
2018-12-22T10:36:21.829Z,100807.19
2018-12-22T10:38:50.102Z,100801.56
2018-12-22T10:41:34.004Z,100809.06
2018-12-22T10:44:02.633Z,100809.60
2018-12-22T10:46:30.925Z,100811.98
2018-12-22T10:48:59.179Z,100809.23
2018-12-22T10:51:27.338Z,100815.72
2018-12-22T10:54:01.639Z,100813.48
2018-12-22T10:56:30.191Z,100827.27
2018-12-22T10:58:58.541Z,100831.20
2018-12-22T11:01:26.993Z,100834.98
2018-12-22T11:03:59.305Z,100836.06
2018-12-22T11:06:27.455Z,100831.67
2018-12-22T11:08:55.655Z,100840.95
2018-12-22T11:11:23.856Z,100840.07
2018-12-22T11:13:52.008Z,100846.11
2018-12-22T11:16:21.346Z,100850.66
2018-12-22T11:18:49.480Z,100859.00
2018-12-22T11:21:17.757Z,100859.56
2018-12-22T11:23:46.008Z,100856.45
2018-12-22T11:26:14.220Z,100860.70
2018-12-22T11:28:42.377Z,100860.20
2018-12-22T11:31:10.569Z,100867.99
2018-12-22T11:33:41.833Z,100865.45
2018-12-22T11:36:10.048Z,100873.18
2018-12-22T11:38:38.250Z,100874.03
2018-12-22T11:41:10.827Z,100878.81
2018-12-22T11:43:41.063Z,100878.27
2018-12-22T11:46:13.362Z,100876.92
2018-12-22T11:49:52.869Z,100876.28
2018-12-22T11:52:21.091Z,100880.52
2018-12-22T11:54:51.407Z,100882.59
2018-12-22T11:57:19.632Z,100879.97
2018-12-22T11:59:50.279Z,100883.63
2018-12-22T12:02:18.477Z,100886.12
2018-12-22T12:04:46.770Z,100890.36
2018-12-22T12:07:15.080Z,100895.23
2018-12-22T12:09:43.287Z,100896.92
2018-12-22T12:12:12.622Z,100892.22
2018-12-22T12:14:40.896Z,100904.86
2018-12-22T12:17:21.195Z,100904.72
2018-12-22T12:19:50.524Z,100906.12
2018-12-22T12:22:19.257Z,100908.05
2018-12-22T12:24:47.431Z,100906.90
2018-12-22T12:27:15.656Z,100908.47
2018-12-22T12:29:43.838Z,100899.94
2018-12-22T12:32:12.146Z,100912.91
2018-12-22T12:34:41.418Z,100914.30
2018-12-22T12:37:10.740Z,100927.45
2018-12-22T12:39:39.210Z,100931.10
2018-12-22T12:42:07.480Z,100931.77
2018-12-22T12:44:36.310Z,100938.22
2018-12-22T12:47:04.566Z,100938.34
2018-12-22T12:49:32.862Z,100938.50
2018-12-22T12:52:01.010Z,100945.69
2018-12-22T12:54:29.383Z,100944.79
2018-12-22T12:56:59.283Z,100947.42
2018-12-22T12:59:29.333Z,100946.70
2018-12-22T13:02:01.304Z,100920.16
2018-12-22T13:04:27.882Z,100955.81
2018-12-22T13:06:56.292Z,100956.84
2018-12-22T13:09:24.500Z,100966.20
2018-12-22T13:11:54.102Z,100971.30
2018-12-22T13:14:24.005Z,100975.79
2018-12-22T13:16:52.388Z,100977.88
2018-12-22T13:19:20.650Z,100979.42
2018-12-22T13:21:51.384Z,100982.20
2018-12-22T13:24:19.632Z,100982.20
2018-12-22T13:26:47.852Z,100982.20
2018-12-22T13:29:16.072Z,100983.91
2018-12-22T13:31:45.082Z,100993.48
2018-12-22T13:34:13.328Z,100996.53
2018-12-22T13:36:41.629Z,100998.75
2018-12-22T13:39:15.904Z,101000.94
2018-12-22T13:41:44.139Z,100997.85
2018-12-22T13:44:12.329Z,101001.86
2018-12-22T13:46:40.727Z,101003.34
2018-12-22T13:49:09.311Z,101001.81
2018-12-22T13:51:38.870Z,101009.16
2018-12-22T13:54:07.193Z,101013.56
2018-12-22T13:56:35.352Z,101008.70
2018-12-22T13:59:03.722Z,101007.56
2018-12-22T14:01:50.183Z,101007.77
2018-12-22T14:04:19.485Z,101006.99
2018-12-22T14:06:48.232Z,101001.58
2018-12-22T14:09:16.543Z,101006.75
2018-12-22T14:11:44.780Z,101001.73
2018-12-22T14:14:18.377Z,101005.13
2018-12-22T14:17:25.876Z,101004.45
2018-12-22T14:20:00.077Z,101003.82
2018-12-22T14:22:29.350Z,101019.05
2018-12-22T14:24:58.256Z,101013.41
2018-12-22T14:27:26.614Z,101016.89
2018-12-22T14:29:54.864Z,101020.91
2018-12-22T14:32:47.611Z,101027.48
2018-12-22T14:35:24.613Z,101017.72
2018-12-22T14:37:52.897Z,101031.38
2018-12-22T14:40:21.276Z,101033.64
2018-12-22T14:42:49.504Z,101038.33
2018-12-22T14:45:17.746Z,101037.26
2018-12-22T14:47:45.941Z,101040.64
2018-12-22T14:50:14.177Z,101050.00
2018-12-22T14:55:07.559Z,101055.88
2018-12-22T14:57:44.973Z,101055.66
2018-12-22T15:00:13.839Z,101064.37
2018-12-22T15:02:42.069Z,101066.55
2018-12-22T15:05:10.325Z,101072.11
2018-12-22T15:07:38.578Z,101074.59
2018-12-22T15:10:07.014Z,101075.48
2018-12-22T15:12:46.615Z,101077.42
2018-12-22T15:15:15.000Z,101076.29
2018-12-22T15:17:43.435Z,101081.39
2018-12-22T15:20:19.328Z,101080.34
2018-12-22T15:22:55.541Z,101080.52
2018-12-22T15:25:23.713Z,101090.17
2018-12-22T15:27:51.890Z,101090.55
2018-12-22T15:30:20.119Z,101086.11
2018-12-22T15:32:54.490Z,101088.70
2018-12-22T15:35:18.708Z,101092.19
2018-12-22T15:37:46.862Z,101094.31
2018-12-22T15:40:16.064Z,101092.77
2018-12-22T15:42:44.228Z,101092.23
2018-12-22T15:45:13.946Z,101103.79
2018-12-22T15:47:43.054Z,101091.49
2018-12-22T15:50:13.686Z,101099.84
2018-12-22T15:52:41.967Z,101103.86
2018-12-22T15:55:12.375Z,101102.20
2018-12-22T15:57:40.621Z,101109.16
2018-12-22T16:00:10.827Z,101102.09
2018-12-22T16:02:38.974Z,101109.31
2018-12-22T16:05:08.682Z,101116.28
2018-12-22T16:07:37.130Z,101116.94
2018-12-22T16:10:08.562Z,101116.16
2018-12-22T16:12:36.781Z,101120.88
2018-12-22T16:15:06.897Z,101127.06
2018-12-22T16:17:35.101Z,101123.97
2018-12-22T16:20:03.535Z,101126.67
2018-12-22T16:22:33.944Z,101134.68
2018-12-22T16:25:02.187Z,101132.39
2018-12-22T16:27:30.441Z,101131.66
2018-12-22T16:29:58.698Z,101138.46
2018-12-22T16:32:27.109Z,101140.94
2018-12-22T16:34:55.491Z,101135.95
2018-12-22T16:37:23.641Z,101138.39
2018-12-22T16:39:53.473Z,101144.69
2018-12-22T16:42:21.710Z,101139.31
2018-12-22T16:44:52.065Z,101141.94
2018-12-22T16:47:20.252Z,101149.02
2018-12-22T16:49:48.512Z,101142.01
2018-12-22T16:52:16.796Z,101150.48
2018-12-22T16:54:44.936Z,101153.34
2018-12-22T16:57:17.152Z,101153.81
2018-12-22T16:59:45.440Z,101158.75
2018-12-22T17:02:25.381Z,101160.84
2018-12-22T17:07:49.373Z,101168.61
2018-12-22T17:10:20.302Z,101177.30
2018-12-22T17:12:50.596Z,101183.02
2018-12-22T17:15:22.247Z,101190.56
2018-12-22T17:17:49.104Z,101193.20
2018-12-22T17:20:17.487Z,101195.56
2018-12-22T17:24:24.403Z,101198.59
2018-12-22T17:26:52.562Z,101202.14
2018-12-22T17:29:20.824Z,101198.33
2018-12-22T17:31:48.995Z,101208.55
2018-12-22T17:34:17.264Z,101206.14
2018-12-22T17:36:45.495Z,101215.73
2018-12-22T17:39:14.883Z,101219.08
2018-12-22T17:41:43.982Z,101217.23
2018-12-22T17:44:12.234Z,101213.44
2018-12-22T17:46:40.396Z,101226.51
2018-12-22T17:49:08.761Z,101228.81
2018-12-22T17:51:37.040Z,101236.95
2018-12-22T17:54:05.330Z,101240.64
2018-12-22T17:56:33.798Z,101258.58
2018-12-22T17:59:01.987Z,101253.72
2018-12-22T18:01:30.247Z,101265.82
2018-12-22T18:03:59.642Z,101259.04
2018-12-22T18:06:29.499Z,101266.08
2018-12-22T18:08:58.034Z,101270.23
2018-12-22T18:11:26.215Z,101277.44
2018-12-22T18:13:54.402Z,101277.58
2018-12-22T18:16:22.640Z,101285.93
2018-12-22T18:18:50.852Z,101283.63
2018-12-22T18:21:19.116Z,101288.73
2018-12-22T18:23:47.547Z,101291.36
2018-12-22T18:26:15.845Z,101297.47
2018-12-22T18:28:44.177Z,101305.29
2018-12-22T18:31:12.349Z,101311.75
2018-12-22T18:33:40.512Z,101313.14
2018-12-22T18:36:08.917Z,101313.98
2018-12-22T18:38:37.280Z,101317.54
2018-12-22T18:41:07.029Z,101317.79
2018-12-22T18:43:36.358Z,101321.13
2018-12-22T18:46:04.620Z,101324.44
2018-12-22T18:48:32.837Z,101331.08
2018-12-22T18:51:01.100Z,101331.14
2018-12-22T18:53:29.289Z,101338.56
2018-12-22T18:55:57.449Z,101334.09
2018-12-22T19:01:16.167Z,101335.52
2018-12-22T19:04:04.991Z,101340.91
2018-12-22T19:09:27.942Z,101358.67
2018-12-22T19:11:56.089Z,101356.22
2018-12-22T19:14:24.333Z,101363.94
2018-12-22T19:16:52.556Z,101366.95
2018-12-22T19:19:20.735Z,101367.95
2018-12-22T19:21:48.952Z,101369.26
2018-12-22T19:24:17.365Z,101377.08
2018-12-22T19:26:45.551Z,101378.50
2018-12-22T19:29:13.726Z,101384.42
2018-12-22T19:31:42.248Z,101384.48
2018-12-22T19:34:10.589Z,101396.88
2018-12-22T19:36:38.820Z,101398.02
2018-12-22T19:39:07.588Z,101402.81
2018-12-22T19:41:35.800Z,101405.29
2018-12-22T19:44:04.096Z,101408.14
2018-12-22T19:49:25.102Z,101414.20
2018-12-22T19:51:53.442Z,101413.73
2018-12-22T19:54:21.700Z,101410.32
2018-12-22T19:56:49.862Z,101416.43
2018-12-22T19:59:18.182Z,101414.16
2018-12-22T20:01:46.391Z,101414.48
2018-12-22T20:04:14.797Z,101423.06
2018-12-22T20:06:43.118Z,101421.92
2018-12-22T20:09:11.342Z,101429.23
2018-12-22T20:11:39.703Z,101427.17
2018-12-22T20:14:07.851Z,101434.50
2018-12-22T20:16:36.092Z,101436.89
2018-12-22T20:19:04.437Z,101444.78
2018-12-22T20:21:32.609Z,101440.44
2018-12-22T20:24:00.785Z,101439.66
2018-12-22T20:26:29.012Z,101443.20
2018-12-22T20:28:57.267Z,101446.48
2018-12-22T20:31:25.436Z,101446.97
2018-12-22T20:33:53.610Z,101443.36
2018-12-22T20:36:21.747Z,101449.99
2018-12-22T20:38:49.896Z,101452.98
2018-12-22T20:41:18.063Z,101456.17
2018-12-22T20:43:46.268Z,101457.18
2018-12-22T20:46:14.414Z,101461.47
2018-12-22T20:48:42.806Z,101460.33
2018-12-22T20:51:10.944Z,101471.91
2018-12-22T20:53:39.379Z,101470.05
2018-12-22T20:56:07.804Z,101466.77
2018-12-22T20:58:38.358Z,101470.68
2018-12-22T21:01:06.742Z,101472.56
2018-12-22T21:03:39.788Z,101472.91
2018-12-22T21:06:15.071Z,101477.53
2018-12-22T21:08:47.586Z,101477.80
2018-12-22T21:11:33.078Z,101481.91
2018-12-22T21:14:01.333Z,101482.14
2018-12-22T21:16:29.630Z,101489.92
2018-12-22T21:18:57.946Z,101488.42
2018-12-22T21:21:26.313Z,101491.30
2018-12-22T21:23:54.539Z,101487.00
2018-12-22T21:26:22.796Z,101496.89
2018-12-22T21:28:51.062Z,101493.73
2018-12-22T21:31:19.240Z,101496.49
2018-12-22T21:33:49.618Z,101499.52
2018-12-22T21:36:18.031Z,101501.74
2018-12-22T21:38:46.209Z,101513.91
2018-12-22T21:41:14.563Z,101514.92
2018-12-22T21:43:42.726Z,101513.61
2018-12-22T21:46:10.965Z,101519.20
2018-12-22T21:48:39.189Z,101520.17
2018-12-22T21:51:07.469Z,101513.91
2018-12-22T21:53:35.676Z,101522.73
2018-12-22T21:56:03.913Z,101518.59
2018-12-22T21:58:32.692Z,101524.97
2018-12-22T22:01:00.911Z,101527.87
2018-12-22T22:03:29.084Z,101526.34
2018-12-22T22:05:57.278Z,101528.36
2018-12-22T22:08:27.466Z,101527.84
2018-12-22T22:10:56.866Z,101532.33
2018-12-22T22:13:25.144Z,101534.92
2018-12-22T22:15:55.972Z,101535.41
2018-12-22T22:18:24.131Z,101533.30
2018-12-22T22:20:52.316Z,101535.14
2018-12-22T22:23:21.695Z,101532.57
2018-12-22T22:27:01.102Z,101529.55
2018-12-22T22:29:29.225Z,101540.91
2018-12-22T22:31:58.071Z,101543.99
2018-12-22T22:34:29.399Z,101544.84
2018-12-22T22:36:58.613Z,101546.25
2018-12-22T22:39:26.841Z,101544.33
2018-12-22T22:41:55.016Z,101545.80
2018-12-22T22:44:23.774Z,101541.31
2018-12-22T22:46:52.038Z,101552.73
2018-12-22T22:49:20.200Z,101556.30
2018-12-22T22:51:48.418Z,101550.25
2018-12-22T22:54:18.041Z,101555.84
2018-12-22T22:56:46.308Z,101560.09
2018-12-22T22:59:17.776Z,101561.48
2018-12-22T23:01:46.333Z,101556.23
2018-12-22T23:04:14.555Z,101555.05
2018-12-22T23:06:48.096Z,101560.70
2018-12-22T23:09:16.367Z,101573.37
2018-12-22T23:11:44.776Z,101572.88
2018-12-22T23:14:13.058Z,101579.33
2018-12-22T23:16:41.353Z,101564.55
2018-12-22T23:19:09.625Z,101574.02
2018-12-22T23:21:41.820Z,101571.45
2018-12-22T23:24:12.333Z,101580.13
2018-12-22T23:26:40.622Z,101579.27
2018-12-22T23:29:08.781Z,101575.33
2018-12-22T23:31:37.029Z,101572.77
2018-12-22T23:34:05.339Z,101576.30
2018-12-22T23:36:33.617Z,101570.08
2018-12-22T23:39:01.834Z,101565.03
2018-12-22T23:41:30.088Z,101572.82
2018-12-22T23:43:58.306Z,101574.81
2018-12-22T23:46:26.492Z,101562.59
2018-12-22T23:48:54.655Z,101561.19
2018-12-22T23:51:22.942Z,101569.53
2018-12-22T23:53:51.092Z,101569.80
2018-12-22T23:56:19.256Z,101560.76
2018-12-22T23:58:47.490Z,101558.05
